createdAt,value
2023-03-29T00:00:18.748Z,45.60
2023-03-29T00:01:35.725Z,45.60
2023-03-29T00:02:18.700Z,48.66
2023-03-29T00:03:18.924Z,46.08
2023-03-29T00:04:18.717Z,49.15
2023-03-29T00:05:18.676Z,48.50
2023-03-29T00:06:18.634Z,45.44
2023-03-29T00:07:18.633Z,45.76
2023-03-29T00:08:18.617Z,46.41
2023-03-29T00:09:18.613Z,48.50
2023-03-29T00:10:18.622Z,44.96
2023-03-29T00:11:18.585Z,47.37
2023-03-29T00:12:18.615Z,48.82
2023-03-29T00:13:18.587Z,46.41
2023-03-29T00:14:18.602Z,46.08
2023-03-29T00:15:18.557Z,45.44
2023-03-29T00:16:18.587Z,46.89
2023-03-29T00:17:18.524Z,44.31
2023-03-29T00:18:18.530Z,44.31
2023-03-29T00:19:18.528Z,44.79
2023-03-29T00:20:18.514Z,48.50
2023-03-29T00:21:18.555Z,47.05
2023-03-29T00:22:18.478Z,45.44
2023-03-29T00:23:18.470Z,48.98
2023-03-29T00:24:18.496Z,48.02
2023-03-29T00:25:18.455Z,45.28
2023-03-29T00:26:18.474Z,45.28
2023-03-29T00:27:18.521Z,47.37
2023-03-29T00:28:18.441Z,48.34
2023-03-29T00:29:18.432Z,53.33
2023-03-29T00:30:18.435Z,47.37
2023-03-29T00:31:18.438Z,48.34
2023-03-29T00:32:18.420Z,46.25
2023-03-29T00:33:18.404Z,48.02
2023-03-29T00:34:18.402Z,47.37
2023-03-29T00:35:18.364Z,49.15
2023-03-29T00:36:18.366Z,51.72
2023-03-29T00:37:18.396Z,58.97
2023-03-29T00:38:18.387Z,48.66
2023-03-29T00:39:18.336Z,48.66
2023-03-29T00:40:18.321Z,46.89
2023-03-29T00:41:18.299Z,52.53
2023-03-29T00:42:18.320Z,45.92
2023-03-29T00:43:18.312Z,45.60
2023-03-29T00:44:18.261Z,45.44
2023-03-29T00:45:18.261Z,45.60
2023-03-29T00:46:18.325Z,45.76
2023-03-29T00:47:18.262Z,45.28
2023-03-29T00:48:18.240Z,48.50
2023-03-29T00:49:18.259Z,51.40
2023-03-29T00:50:18.203Z,45.12
2023-03-29T00:51:18.218Z,44.63
2023-03-29T00:52:18.201Z,44.96
2023-03-29T00:53:18.241Z,52.53
2023-03-29T00:54:18.189Z,46.89
2023-03-29T00:55:18.177Z,45.76
2023-03-29T00:56:18.149Z,44.96
2023-03-29T00:57:18.167Z,50.27
2023-03-29T00:58:18.158Z,46.73
2023-03-29T00:59:18.136Z,45.44
2023-03-29T01:00:18.148Z,45.76
2023-03-29T01:01:18.106Z,45.92
2023-03-29T01:02:18.137Z,46.25
2023-03-29T01:03:18.146Z,45.76
2023-03-29T01:04:18.121Z,46.41
2023-03-29T01:05:18.079Z,47.53
2023-03-29T01:06:18.087Z,46.57
2023-03-29T01:07:18.145Z,47.37
2023-03-29T01:08:18.041Z,45.76
2023-03-29T01:09:18.060Z,46.41
2023-03-29T01:10:18.049Z,47.05
2023-03-29T01:11:18.064Z,47.86
2023-03-29T01:12:18.016Z,46.73
2023-03-29T01:13:17.988Z,46.73
2023-03-29T01:14:17.962Z,48.82
2023-03-29T01:15:17.953Z,48.82
2023-03-29T01:16:18.073Z,46.73
2023-03-29T01:17:17.947Z,46.73
2023-03-29T01:18:17.926Z,45.12
2023-03-29T01:19:17.949Z,48.66
2023-03-29T01:20:17.918Z,45.60
2023-03-29T01:21:17.937Z,46.41
2023-03-29T01:22:17.901Z,48.18
2023-03-29T01:23:17.963Z,45.76
2023-03-29T01:24:17.912Z,46.08
2023-03-29T01:25:17.878Z,47.86
2023-03-29T01:26:17.887Z,44.96
2023-03-29T01:27:17.879Z,49.47
2023-03-29T01:28:17.872Z,45.44
2023-03-29T01:29:17.836Z,46.41
2023-03-29T01:30:17.849Z,45.44
2023-03-29T01:31:17.821Z,46.57
2023-03-29T01:32:17.857Z,46.73
2023-03-29T01:33:17.840Z,46.25
2023-03-29T01:34:17.802Z,49.31
2023-03-29T01:35:17.779Z,48.18
2023-03-29T01:36:17.880Z,45.44
2023-03-29T01:37:17.814Z,49.47
2023-03-29T01:38:17.740Z,48.34
2023-03-29T01:39:17.721Z,47.86
2023-03-29T01:40:17.768Z,48.34
2023-03-29T01:41:17.729Z,48.34
2023-03-29T01:42:17.704Z,48.98
2023-03-29T01:43:17.704Z,46.73
2023-03-29T01:44:17.697Z,50.43
2023-03-29T01:45:17.687Z,49.15
2023-03-29T01:46:17.770Z,48.18
2023-03-29T01:47:17.644Z,48.02
2023-03-29T01:48:17.672Z,46.89
2023-03-29T01:49:17.638Z,46.57
2023-03-29T01:50:17.697Z,53.82
2023-03-29T01:51:17.662Z,47.05
2023-03-29T01:52:17.673Z,47.53
2023-03-29T01:53:17.593Z,48.02
2023-03-29T01:54:17.617Z,48.34
2023-03-29T01:55:17.587Z,50.27
2023-03-29T01:56:17.603Z,47.53
2023-03-29T01:57:17.622Z,46.25
2023-03-29T01:58:17.535Z,51.88
2023-03-29T01:59:17.552Z,47.21
2023-03-29T02:00:17.583Z,47.37
2023-03-29T02:01:17.648Z,45.92
2023-03-29T02:02:17.581Z,47.86
2023-03-29T02:03:17.688Z,48.82
2023-03-29T02:04:17.550Z,47.70
2023-03-29T02:05:17.479Z,48.18
2023-03-29T02:06:17.479Z,46.41
2023-03-29T02:07:17.468Z,45.28
2023-03-29T02:08:17.491Z,44.63
2023-03-29T02:09:17.478Z,45.76
2023-03-29T02:10:49.353Z,45.76
2023-03-29T02:11:17.435Z,45.44
2023-03-29T02:12:17.422Z,48.34
2023-03-29T02:13:17.425Z,48.50
2023-03-29T02:14:17.408Z,47.53
2023-03-29T02:15:17.393Z,45.60
2023-03-29T02:16:17.414Z,46.08
2023-03-29T02:17:17.389Z,46.41
2023-03-29T02:18:17.376Z,47.53
2023-03-29T02:19:17.388Z,49.63
2023-03-29T02:20:17.415Z,47.05
2023-03-29T02:21:17.461Z,48.18
2023-03-29T02:22:17.361Z,48.50
2023-03-29T02:23:17.298Z,45.28
2023-03-29T02:24:17.309Z,45.44
2023-03-29T02:25:17.302Z,48.34
2023-03-29T02:26:17.339Z,47.05
2023-03-29T02:27:17.303Z,45.92
2023-03-29T02:28:17.291Z,45.44
2023-03-29T02:29:17.284Z,49.95
2023-03-29T02:30:17.236Z,48.82
2023-03-29T02:31:17.252Z,53.01
2023-03-29T02:32:17.238Z,47.70
2023-03-29T02:33:17.243Z,49.47
2023-03-29T02:34:17.223Z,46.89
2023-03-29T02:35:17.225Z,48.82
2023-03-29T02:36:17.219Z,48.50
2023-03-29T02:37:17.177Z,46.57
2023-03-29T02:38:17.156Z,48.34
2023-03-29T02:39:17.156Z,48.02
2023-03-29T02:40:17.173Z,50.11
2023-03-29T02:41:17.117Z,50.11
2023-03-29T02:42:17.205Z,50.43
2023-03-29T02:43:17.129Z,52.37
2023-03-29T02:44:17.141Z,49.63
2023-03-29T02:45:17.198Z,48.66
2023-03-29T02:46:17.229Z,50.11
2023-03-29T02:47:17.172Z,48.34
2023-03-29T02:48:17.236Z,46.57
2023-03-29T02:49:18.086Z,47.37
2023-03-29T02:50:17.137Z,48.34
2023-03-29T02:51:19.779Z,52.53
2023-03-29T02:52:18.085Z,48.18
2023-03-29T02:53:17.029Z,54.14
2023-03-29T02:54:17.032Z,48.34
2023-03-29T02:55:17.107Z,47.70
2023-03-29T02:56:16.976Z,53.50
2023-03-29T02:57:16.997Z,50.76
2023-03-29T02:58:16.975Z,49.95
2023-03-29T02:59:16.977Z,50.76
2023-03-29T03:00:16.974Z,49.63
2023-03-29T03:01:16.945Z,46.41
2023-03-29T03:02:16.982Z,50.27
2023-03-29T03:03:17.066Z,49.63
2023-03-29T03:04:16.887Z,50.76
2023-03-29T03:05:16.935Z,48.82
2023-03-29T03:06:16.914Z,48.18
2023-03-29T03:07:16.887Z,50.27
2023-03-29T03:08:16.881Z,48.02
2023-03-29T03:09:16.942Z,53.98
2023-03-29T03:10:16.846Z,51.88
2023-03-29T03:11:16.831Z,53.33
2023-03-29T03:12:16.912Z,52.53
2023-03-29T03:13:16.818Z,49.15
2023-03-29T03:14:16.835Z,53.98
2023-03-29T03:15:16.802Z,52.85
2023-03-29T03:16:16.831Z,51.72
2023-03-29T03:17:16.791Z,49.79
2023-03-29T03:18:16.867Z,49.79
2023-03-29T03:19:16.819Z,53.33
2023-03-29T03:20:16.790Z,53.66
2023-03-29T03:21:16.726Z,55.75
2023-03-29T03:22:16.729Z,51.72
2023-03-29T03:23:16.739Z,56.40
2023-03-29T03:24:16.703Z,52.85
2023-03-29T03:25:16.743Z,52.69
2023-03-29T03:26:16.740Z,49.15
2023-03-29T03:27:16.716Z,53.82
2023-03-29T03:28:16.672Z,54.62
2023-03-29T03:29:16.697Z,54.30
2023-03-29T03:30:16.663Z,53.98
2023-03-29T03:31:16.712Z,49.79
2023-03-29T03:32:16.663Z,54.62
2023-03-29T03:33:16.606Z,52.85
2023-03-29T03:34:16.624Z,54.62
2023-03-29T03:35:16.608Z,54.79
2023-03-29T03:36:16.595Z,56.40
2023-03-29T03:37:16.620Z,54.62
2023-03-29T03:38:16.596Z,53.50
2023-03-29T03:39:16.577Z,53.17
2023-03-29T03:40:16.571Z,52.05
2023-03-29T03:41:16.562Z,52.37
2023-03-29T03:42:17.567Z,55.27
2023-03-29T03:43:16.516Z,53.01
2023-03-29T03:44:16.546Z,54.62
2023-03-29T03:45:16.566Z,53.33
2023-03-29T03:46:16.575Z,51.40
2023-03-29T03:47:16.521Z,53.66
2023-03-29T03:48:16.515Z,53.33
2023-03-29T03:49:16.497Z,55.11
2023-03-29T03:50:16.485Z,51.40
2023-03-29T03:51:16.483Z,54.95
2023-03-29T03:52:16.445Z,56.40
2023-03-29T03:53:16.472Z,51.72
2023-03-29T03:54:16.433Z,48.34
2023-03-29T03:55:17.424Z,52.53
2023-03-29T03:56:16.429Z,50.27
2023-03-29T03:57:16.423Z,53.66
2023-03-29T03:58:16.472Z,51.88
2023-03-29T03:59:16.431Z,55.43
2023-03-29T04:00:16.389Z,52.69
2023-03-29T04:01:16.355Z,53.33
2023-03-29T04:02:16.438Z,52.85
2023-03-29T04:03:16.473Z,50.76
2023-03-29T04:04:16.430Z,53.33
2023-03-29T04:05:16.398Z,52.05
2023-03-29T04:06:16.350Z,54.30
2023-03-29T04:07:16.297Z,54.46
2023-03-29T04:08:16.314Z,52.85
2023-03-29T04:09:16.278Z,55.27
2023-03-29T04:10:16.269Z,54.95
2023-03-29T04:11:16.268Z,53.98
2023-03-29T04:12:16.270Z,53.98
2023-03-29T04:13:16.235Z,53.33
2023-03-29T04:14:16.229Z,50.76
2023-03-29T04:15:16.220Z,56.24
2023-03-29T04:16:16.342Z,56.24
2023-03-29T04:17:16.184Z,54.95
2023-03-29T04:18:16.330Z,53.50
2023-03-29T04:19:16.174Z,54.62
2023-03-29T04:20:16.242Z,56.56
2023-03-29T04:21:17.012Z,57.52
2023-03-29T04:22:16.190Z,56.88
2023-03-29T04:23:16.172Z,58.17
2023-03-29T04:24:16.156Z,56.72
2023-03-29T04:25:16.137Z,58.17
2023-03-29T04:26:16.158Z,55.75
2023-03-29T04:27:16.121Z,58.49
2023-03-29T04:28:16.105Z,56.88
2023-03-29T04:29:16.097Z,56.24
2023-03-29T04:30:16.092Z,56.72
2023-03-29T04:31:16.130Z,54.95
2023-03-29T04:32:16.049Z,56.24
2023-03-29T04:33:16.066Z,58.33
2023-03-29T04:34:16.043Z,57.20
2023-03-29T04:35:16.048Z,53.66
2023-03-29T04:36:16.155Z,56.56
2023-03-29T04:37:16.005Z,56.24
2023-03-29T04:38:16.007Z,54.79
2023-03-29T04:39:16.009Z,56.56
2023-03-29T04:40:16.003Z,57.36
2023-03-29T04:41:15.968Z,55.43
2023-03-29T04:42:15.967Z,56.24
2023-03-29T04:43:15.974Z,56.40
2023-03-29T04:44:16.030Z,54.79
2023-03-29T04:45:16.006Z,56.88
2023-03-29T04:46:16.126Z,56.40
2023-03-29T04:47:15.937Z,57.85
2023-03-29T04:48:16.009Z,54.95
2023-03-29T04:49:15.884Z,56.56
2023-03-29T04:50:15.952Z,57.69
2023-03-29T04:51:15.924Z,57.04
2023-03-29T04:52:15.873Z,58.17
2023-03-29T04:53:15.875Z,58.01
2023-03-29T04:54:15.970Z,58.97
2023-03-29T04:55:15.843Z,58.01
2023-03-29T04:56:15.827Z,57.04
2023-03-29T04:57:15.856Z,57.04
2023-03-29T04:58:15.845Z,57.04
2023-03-29T04:59:15.829Z,56.07
2023-03-29T05:00:15.943Z,57.52
2023-03-29T05:01:15.866Z,57.85
2023-03-29T05:02:15.795Z,57.69
2023-03-29T05:03:15.811Z,56.40
2023-03-29T05:04:15.814Z,57.04
2023-03-29T05:05:15.751Z,57.69
2023-03-29T05:06:15.724Z,57.20
2023-03-29T05:07:15.769Z,57.04
2023-03-29T05:08:15.709Z,58.01
2023-03-29T05:09:15.698Z,57.69
2023-03-29T05:10:15.683Z,57.36
2023-03-29T05:11:15.683Z,56.88
2023-03-29T05:12:15.677Z,57.85
2023-03-29T05:13:15.646Z,57.36
2023-03-29T05:14:15.670Z,58.81
2023-03-29T05:15:15.667Z,58.49
2023-03-29T05:16:15.694Z,57.85
2023-03-29T05:17:15.617Z,56.72
2023-03-29T05:18:15.668Z,57.85
2023-03-29T05:19:15.639Z,58.49
2023-03-29T05:20:15.624Z,56.40
2023-03-29T05:21:15.583Z,58.17
2023-03-29T05:22:15.587Z,57.20
2023-03-29T05:23:15.563Z,57.20
2023-03-29T05:24:15.556Z,58.97
2023-03-29T05:25:15.553Z,55.91
2023-03-29T05:26:15.567Z,57.52
2023-03-29T05:27:15.558Z,57.52
2023-03-29T05:28:15.702Z,59.14
2023-03-29T05:29:15.510Z,62.52
2023-03-29T05:30:15.526Z,57.04
2023-03-29T05:31:16.965Z,58.17
2023-03-29T05:32:16.503Z,57.36
2023-03-29T05:33:15.498Z,58.65
2023-03-29T05:34:15.459Z,58.65
2023-03-29T05:35:15.463Z,58.01
2023-03-29T05:36:15.607Z,58.17
2023-03-29T05:37:15.441Z,57.85
2023-03-29T05:38:15.450Z,58.65
2023-03-29T05:39:15.449Z,58.17
2023-03-29T05:40:15.428Z,58.33
2023-03-29T05:41:15.424Z,58.17
2023-03-29T05:42:15.488Z,58.01
2023-03-29T05:43:15.415Z,58.81
2023-03-29T05:44:15.354Z,58.65
2023-03-29T05:45:15.355Z,58.81
2023-03-29T05:46:15.982Z,61.23
2023-03-29T05:47:16.354Z,61.87
2023-03-29T05:48:15.348Z,62.04
2023-03-29T05:49:15.337Z,62.20
2023-03-29T05:50:15.299Z,61.71
2023-03-29T05:51:15.327Z,59.46
2023-03-29T05:52:15.295Z,59.62
2023-03-29T05:53:15.387Z,60.26
2023-03-29T05:54:15.270Z,60.59
2023-03-29T05:55:15.258Z,60.26
2023-03-29T05:56:15.246Z,60.10
2023-03-29T05:57:15.251Z,60.42
2023-03-29T05:58:15.230Z,59.62
2023-03-29T05:59:15.233Z,61.71
2023-03-29T06:00:15.256Z,57.52
2023-03-29T06:01:15.198Z,58.65
2023-03-29T06:02:15.240Z,58.49
2023-03-29T06:03:21.555Z,57.04
2023-03-29T06:04:17.248Z,58.97
2023-03-29T06:05:15.208Z,59.94
2023-03-29T06:06:15.154Z,58.65
2023-03-29T06:07:15.143Z,58.33
2023-03-29T06:08:15.105Z,58.01
2023-03-29T06:09:15.129Z,56.88
2023-03-29T06:10:15.137Z,61.87
2023-03-29T06:11:15.104Z,59.46
2023-03-29T06:12:15.155Z,57.20
2023-03-29T06:13:15.067Z,59.14
2023-03-29T06:14:15.070Z,59.62
2023-03-29T06:15:15.034Z,59.14
2023-03-29T06:16:15.053Z,59.46
2023-03-29T06:17:15.119Z,56.40
2023-03-29T06:18:15.029Z,59.14
2023-03-29T06:19:15.025Z,58.01
2023-03-29T06:20:15.060Z,59.78
2023-03-29T06:21:15.022Z,60.75
2023-03-29T06:22:15.068Z,58.81
2023-03-29T06:23:15.959Z,58.17
2023-03-29T06:24:15.002Z,56.72
2023-03-29T06:25:14.962Z,59.62
2023-03-29T06:26:14.927Z,59.62
2023-03-29T06:27:14.968Z,57.04
2023-03-29T06:28:14.939Z,57.36
2023-03-29T06:29:14.972Z,58.33
2023-03-29T06:30:14.937Z,59.14
2023-03-29T06:31:14.924Z,57.36
2023-03-29T06:32:14.895Z,56.40
2023-03-29T06:33:14.921Z,58.97
2023-03-29T06:34:14.889Z,55.75
2023-03-29T06:35:14.917Z,59.46
2023-03-29T06:36:14.869Z,54.14
2023-03-29T06:37:14.840Z,58.49
2023-03-29T06:38:14.861Z,60.26
2023-03-29T06:39:14.869Z,58.17
2023-03-29T06:40:14.824Z,61.71
2023-03-29T06:41:14.818Z,58.81
2023-03-29T06:42:21.254Z,61.07
2023-03-29T06:43:16.814Z,60.75
2023-03-29T06:44:14.826Z,57.36
2023-03-29T06:45:14.761Z,56.88
2023-03-29T06:46:15.096Z,57.20
2023-03-29T06:47:14.728Z,58.81
2023-03-29T06:48:14.759Z,58.49
2023-03-29T06:49:14.761Z,58.97
2023-03-29T06:50:14.757Z,59.78
2023-03-29T06:51:14.722Z,59.78
2023-03-29T06:52:14.687Z,58.17
2023-03-29T06:53:14.697Z,58.17
2023-03-29T06:54:14.684Z,57.85
2023-03-29T06:55:14.710Z,59.30
2023-03-29T06:56:14.715Z,60.75
2023-03-29T06:57:14.739Z,60.75
2023-03-29T06:58:14.666Z,59.78
2023-03-29T06:59:14.743Z,59.62
2023-03-29T07:00:14.628Z,60.59
2023-03-29T07:01:14.626Z,59.78
2023-03-29T07:02:14.672Z,56.56
2023-03-29T07:03:14.751Z,56.88
2023-03-29T07:04:14.610Z,56.07
2023-03-29T07:05:14.594Z,56.07
2023-03-29T07:06:14.561Z,55.43
2023-03-29T07:07:14.555Z,53.50
2023-03-29T07:08:14.552Z,52.85
2023-03-29T07:09:14.514Z,57.04
2023-03-29T07:10:14.526Z,54.62
2023-03-29T07:11:14.511Z,54.46
2023-03-29T07:12:14.506Z,55.27
2023-03-29T07:13:14.606Z,55.27
2023-03-29T07:14:14.489Z,56.88
2023-03-29T07:15:14.477Z,56.40
2023-03-29T07:16:14.558Z,56.24
2023-03-29T07:17:14.490Z,59.30
2023-03-29T07:18:14.516Z,54.95
2023-03-29T07:19:14.425Z,56.40
2023-03-29T07:20:14.448Z,53.50
2023-03-29T07:21:14.463Z,55.75
2023-03-29T07:22:14.407Z,56.72
2023-03-29T07:23:14.408Z,55.75
2023-03-29T07:24:14.418Z,55.11
2023-03-29T07:25:14.413Z,55.11
2023-03-29T07:26:14.367Z,53.98
2023-03-29T07:27:15.343Z,54.46
2023-03-29T07:28:14.345Z,56.40
2023-03-29T07:29:14.386Z,55.59
2023-03-29T07:30:14.323Z,53.01
2023-03-29T07:31:14.415Z,53.98
2023-03-29T07:32:14.341Z,53.33
2023-03-29T07:33:14.585Z,56.56
2023-03-29T07:34:14.284Z,53.17
2023-03-29T07:35:14.562Z,54.79
2023-03-29T07:36:14.293Z,54.79
2023-03-29T07:37:14.300Z,53.82
2023-03-29T07:38:14.249Z,56.56
2023-03-29T07:39:14.234Z,53.33
2023-03-29T07:40:14.239Z,54.46
2023-03-29T07:41:14.233Z,55.75
2023-03-29T07:42:14.202Z,53.82
2023-03-29T07:43:14.269Z,53.50
2023-03-29T07:44:14.199Z,52.69
2023-03-29T07:45:14.168Z,55.43
2023-03-29T07:46:14.278Z,53.50
2023-03-29T07:47:14.239Z,50.27
2023-03-29T07:48:14.236Z,52.69
2023-03-29T07:49:14.197Z,54.95
2023-03-29T07:50:14.105Z,53.01
2023-03-29T07:51:14.104Z,54.95
2023-03-29T07:52:14.169Z,52.85
2023-03-29T07:53:14.100Z,52.05
2023-03-29T07:54:14.105Z,52.69
2023-03-29T07:55:14.076Z,54.95
2023-03-29T07:56:14.087Z,52.69
2023-03-29T07:57:14.071Z,52.53
2023-03-29T07:58:14.075Z,55.59
2023-03-29T07:59:14.041Z,51.24
2023-03-29T08:00:14.185Z,53.01
2023-03-29T08:01:16.401Z,52.37
2023-03-29T08:02:14.977Z,53.82
2023-03-29T08:03:14.073Z,51.56
2023-03-29T08:04:14.095Z,54.30
2023-03-29T08:05:14.012Z,55.27
2023-03-29T08:06:13.978Z,52.53
2023-03-29T08:07:15.284Z,51.88
2023-03-29T08:08:13.976Z,54.79
2023-03-29T08:09:13.942Z,54.95
2023-03-29T08:10:45.848Z,53.98
2023-03-29T08:11:13.979Z,53.98
2023-03-29T08:12:14.024Z,53.01
2023-03-29T08:13:13.906Z,55.43
2023-03-29T08:14:13.949Z,54.46
2023-03-29T08:15:13.865Z,56.24
2023-03-29T08:16:13.891Z,52.53
2023-03-29T08:17:13.901Z,53.66
2023-03-29T08:18:13.889Z,53.82
2023-03-29T08:19:13.921Z,56.24
2023-03-29T08:20:13.838Z,53.50
2023-03-29T08:21:13.843Z,54.30
2023-03-29T08:22:13.804Z,54.62
2023-03-29T08:23:13.827Z,55.91
2023-03-29T08:24:13.788Z,57.04
2023-03-29T08:25:13.783Z,56.40
2023-03-29T08:26:13.781Z,55.43
2023-03-29T08:27:13.738Z,55.91
2023-03-29T08:28:13.764Z,56.07
2023-03-29T08:29:13.757Z,54.46
2023-03-29T08:30:13.731Z,55.27
2023-03-29T08:31:13.771Z,56.07
2023-03-29T08:32:13.810Z,56.07
2023-03-29T08:33:13.753Z,55.75
2023-03-29T08:34:13.789Z,53.98
2023-03-29T08:35:13.692Z,56.07
2023-03-29T08:36:13.745Z,52.05
2023-03-29T08:37:13.744Z,54.79
2023-03-29T08:38:13.662Z,54.95
2023-03-29T08:39:13.666Z,55.11
2023-03-29T08:40:13.649Z,56.72
2023-03-29T08:41:13.591Z,57.69
2023-03-29T08:42:13.621Z,57.69
2023-03-29T08:43:13.654Z,58.17
2023-03-29T08:44:13.650Z,56.40
2023-03-29T08:45:13.570Z,54.46
2023-03-29T08:46:13.580Z,55.27
2023-03-29T08:47:13.585Z,52.53
2023-03-29T08:48:13.606Z,54.46
2023-03-29T08:49:13.565Z,54.46
2023-03-29T08:50:13.551Z,55.43
2023-03-29T08:51:13.538Z,55.27
2023-03-29T08:52:13.615Z,58.17
2023-03-29T08:53:13.499Z,55.11
2023-03-29T08:54:13.474Z,55.91
2023-03-29T08:55:13.547Z,54.62
2023-03-29T08:56:13.488Z,53.66
2023-03-29T08:57:13.590Z,53.66
2023-03-29T08:58:13.503Z,53.01
2023-03-29T08:59:13.449Z,52.53
2023-03-29T09:00:13.419Z,54.79
2023-03-29T09:01:13.420Z,54.62
2023-03-29T09:02:13.503Z,54.95
2023-03-29T09:03:13.611Z,55.27
2023-03-29T09:04:13.501Z,53.82
2023-03-29T09:05:13.449Z,54.62
2023-03-29T09:06:13.372Z,52.85
2023-03-29T09:07:13.415Z,52.53
2023-03-29T09:08:13.358Z,53.98
2023-03-29T09:09:13.338Z,52.53
2023-03-29T09:10:13.345Z,53.33
2023-03-29T09:11:13.346Z,54.95
2023-03-29T09:12:13.297Z,55.11
2023-03-29T09:13:14.414Z,55.59
2023-03-29T09:14:13.340Z,55.91
2023-03-29T09:15:13.297Z,55.91
2023-03-29T09:16:13.404Z,54.79
2023-03-29T09:17:13.267Z,54.95
2023-03-29T09:18:13.363Z,54.14
2023-03-29T09:19:13.254Z,52.69
2023-03-29T09:20:13.221Z,53.17
2023-03-29T09:21:13.244Z,52.21
2023-03-29T09:22:13.277Z,52.85
2023-03-29T09:23:13.212Z,53.66
2023-03-29T09:24:13.176Z,52.37
2023-03-29T09:25:13.180Z,55.43
2023-03-29T09:26:13.277Z,55.43
2023-03-29T09:27:13.162Z,55.59
2023-03-29T09:28:13.167Z,55.43
2023-03-29T09:29:13.191Z,56.24
2023-03-29T09:30:13.188Z,54.14
2023-03-29T09:31:13.208Z,55.75
2023-03-29T09:32:13.164Z,55.59
2023-03-29T09:33:13.155Z,55.43
2023-03-29T09:34:14.437Z,53.98
2023-03-29T09:35:13.088Z,53.98
2023-03-29T09:36:13.166Z,53.82
2023-03-29T09:37:13.111Z,55.75
2023-03-29T09:38:13.066Z,52.69
2023-03-29T09:39:13.043Z,57.04
2023-03-29T09:40:13.035Z,57.20
2023-03-29T09:41:13.015Z,54.30
2023-03-29T09:42:12.999Z,57.20
2023-03-29T09:43:13.051Z,58.17
2023-03-29T09:44:24.230Z,57.52
2023-03-29T09:45:15.030Z,56.40
2023-03-29T09:46:13.058Z,56.72
2023-03-29T09:47:13.009Z,57.69
2023-03-29T09:48:13.001Z,59.14
2023-03-29T09:49:14.031Z,55.43
2023-03-29T09:50:23.473Z,55.27
2023-03-29T09:51:13.922Z,55.27
2023-03-29T09:52:12.973Z,57.36
2023-03-29T09:53:12.951Z,55.27
2023-03-29T09:54:12.895Z,55.91
2023-03-29T09:55:12.898Z,56.88
2023-03-29T09:56:12.926Z,56.24
2023-03-29T09:57:12.895Z,54.95
2023-03-29T09:58:12.847Z,55.91
2023-03-29T09:59:12.893Z,56.88
2023-03-29T10:00:12.843Z,55.59
2023-03-29T10:01:12.862Z,56.56
2023-03-29T10:02:12.838Z,57.69
2023-03-29T10:03:12.850Z,56.56
2023-03-29T10:04:12.810Z,56.56
2023-03-29T10:05:12.823Z,56.56
2023-03-29T10:06:12.788Z,54.30
2023-03-29T10:07:12.773Z,53.66
2023-03-29T10:08:12.772Z,52.53
2023-03-29T10:09:12.740Z,51.88
2023-03-29T10:10:12.746Z,52.05
2023-03-29T10:11:12.736Z,54.79
2023-03-29T10:12:12.732Z,56.88
2023-03-29T10:13:12.711Z,58.97
2023-03-29T10:14:12.731Z,57.69
2023-03-29T10:15:23.237Z,56.56
2023-03-29T10:16:14.769Z,54.46
2023-03-29T10:17:12.696Z,53.98
2023-03-29T10:18:12.700Z,55.75
2023-03-29T10:19:12.658Z,55.91
2023-03-29T10:20:12.661Z,57.04
2023-03-29T10:21:12.671Z,53.33
2023-03-29T10:22:12.664Z,53.66
2023-03-29T10:23:12.636Z,56.24
2023-03-29T10:24:12.639Z,56.72
2023-03-29T10:25:12.580Z,55.43
2023-03-29T10:26:12.607Z,56.07
2023-03-29T10:27:12.588Z,58.81
2023-03-29T10:28:12.554Z,58.97
2023-03-29T10:29:12.601Z,55.75
2023-03-29T10:30:12.555Z,57.85
2023-03-29T10:31:12.558Z,56.24
2023-03-29T10:32:12.603Z,56.88
2023-03-29T10:33:12.573Z,57.04
2023-03-29T10:34:12.484Z,54.79
2023-03-29T10:35:12.519Z,56.40
2023-03-29T10:36:12.510Z,57.69
2023-03-29T10:37:12.562Z,57.52
2023-03-29T10:38:12.482Z,56.40
2023-03-29T10:39:12.484Z,56.72
2023-03-29T10:40:12.456Z,56.56
2023-03-29T10:41:12.478Z,56.88
2023-03-29T10:42:12.449Z,58.01
2023-03-29T10:43:12.521Z,57.36
2023-03-29T10:44:12.415Z,54.30
2023-03-29T10:45:12.393Z,56.07
2023-03-29T10:46:12.406Z,54.95
2023-03-29T10:47:12.424Z,55.27
2023-03-29T10:48:12.368Z,52.53
2023-03-29T10:49:12.420Z,55.59
2023-03-29T10:50:12.347Z,55.11
2023-03-29T10:51:12.355Z,55.59
2023-03-29T10:52:12.340Z,55.91
2023-03-29T10:53:12.410Z,54.62
2023-03-29T10:54:12.344Z,52.37
2023-03-29T10:55:12.316Z,56.24
2023-03-29T10:56:12.435Z,56.07
2023-03-29T10:57:12.330Z,56.24
2023-03-29T10:58:12.269Z,56.40
2023-03-29T10:59:12.245Z,52.05
2023-03-29T11:00:12.340Z,54.30
2023-03-29T11:01:12.246Z,55.59
2023-03-29T11:02:12.271Z,55.43
2023-03-29T11:03:14.340Z,54.46
2023-03-29T11:04:12.211Z,56.40
2023-03-29T11:05:12.200Z,57.20
2023-03-29T11:06:12.208Z,59.46
2023-03-29T11:07:12.183Z,60.10
2023-03-29T11:08:12.150Z,60.26
2023-03-29T11:09:12.184Z,60.75
2023-03-29T11:10:12.211Z,58.01
2023-03-29T11:11:13.174Z,56.56
2023-03-29T11:12:16.170Z,54.30
2023-03-29T11:13:13.104Z,56.24
2023-03-29T11:14:12.113Z,56.72
2023-03-29T11:15:12.147Z,57.36
2023-03-29T11:16:12.146Z,56.56
2023-03-29T11:17:12.057Z,57.85
2023-03-29T11:18:12.129Z,56.72
2023-03-29T11:19:12.080Z,59.30
2023-03-29T11:20:12.125Z,58.33
2023-03-29T11:21:12.055Z,56.56
2023-03-29T11:22:12.062Z,57.20
2023-03-29T11:23:12.032Z,57.04
2023-03-29T11:24:12.008Z,56.24
2023-03-29T11:25:12.043Z,56.07
2023-03-29T11:26:11.991Z,55.11
2023-03-29T11:27:12.000Z,58.81
2023-03-29T11:28:12.005Z,58.01
2023-03-29T11:29:11.956Z,55.43
2023-03-29T11:30:12.065Z,57.85
2023-03-29T11:31:12.075Z,56.07
2023-03-29T11:32:11.936Z,53.98
2023-03-29T11:33:11.918Z,55.11
2023-03-29T11:34:11.981Z,54.14
2023-03-29T11:35:11.919Z,54.79
2023-03-29T11:36:11.938Z,58.17
2023-03-29T11:37:11.879Z,58.01
2023-03-29T11:38:11.852Z,56.24
2023-03-29T11:39:11.988Z,55.59
2023-03-29T11:40:12.074Z,58.49
2023-03-29T11:41:11.847Z,56.24
2023-03-29T11:42:11.839Z,56.88
2023-03-29T11:43:11.884Z,52.85
2023-03-29T11:44:11.808Z,55.43
2023-03-29T11:45:11.906Z,57.52
2023-03-29T11:46:11.804Z,58.17
2023-03-29T11:47:11.814Z,56.56
2023-03-29T11:48:11.843Z,57.20
2023-03-29T11:49:11.775Z,55.27
2023-03-29T11:50:11.767Z,57.04
2023-03-29T11:51:11.777Z,57.04
2023-03-29T11:52:11.765Z,53.98
2023-03-29T11:53:11.767Z,50.92
2023-03-29T11:54:11.698Z,49.79
2023-03-29T11:55:11.729Z,53.66
2023-03-29T11:56:11.706Z,52.37
2023-03-29T11:57:11.741Z,53.33
2023-03-29T11:58:11.703Z,52.37
2023-03-29T11:59:11.734Z,52.53
2023-03-29T12:00:11.698Z,56.07
2023-03-29T12:01:11.676Z,53.66
2023-03-29T12:02:11.678Z,54.14
2023-03-29T12:03:11.694Z,53.33
2023-03-29T12:04:11.714Z,55.27
2023-03-29T12:05:11.678Z,55.75
2023-03-29T12:06:11.678Z,54.46
2023-03-29T12:07:11.601Z,53.98
2023-03-29T12:08:11.587Z,54.95
2023-03-29T12:09:14.238Z,54.95
2023-03-29T12:10:11.607Z,53.66
2023-03-29T12:11:11.542Z,53.33
2023-03-29T12:12:11.598Z,54.95
2023-03-29T12:13:11.526Z,53.98
2023-03-29T12:14:11.597Z,55.91
2023-03-29T12:15:11.550Z,53.66
2023-03-29T12:16:11.562Z,56.40
2023-03-29T12:17:11.550Z,53.66
2023-03-29T12:18:11.543Z,53.33
2023-03-29T12:19:11.506Z,53.66
2023-03-29T12:20:11.546Z,52.69
2023-03-29T12:21:11.485Z,54.79
2023-03-29T12:22:11.486Z,50.76
2023-03-29T12:23:11.499Z,54.14
2023-03-29T12:24:11.450Z,52.85
2023-03-29T12:25:11.485Z,57.52
2023-03-29T12:26:11.407Z,56.24
2023-03-29T12:27:11.414Z,56.72
2023-03-29T12:28:11.396Z,54.46
2023-03-29T12:29:11.427Z,55.75
2023-03-29T12:30:11.401Z,56.56
2023-03-29T12:31:11.420Z,53.98
2023-03-29T12:32:11.397Z,55.91
2023-03-29T12:33:13.095Z,56.72
2023-03-29T12:34:12.375Z,58.17
2023-03-29T12:35:11.331Z,56.07
2023-03-29T12:36:11.402Z,58.81
2023-03-29T12:37:11.310Z,56.56
2023-03-29T12:38:11.344Z,57.36
2023-03-29T12:39:11.318Z,58.17
2023-03-29T12:40:11.327Z,57.85
2023-03-29T12:41:11.332Z,58.81
2023-03-29T12:42:11.278Z,56.88
2023-03-29T12:43:11.365Z,56.72
2023-03-29T12:44:11.254Z,58.33
2023-03-29T12:45:11.239Z,56.56
2023-03-29T12:46:11.283Z,56.56
2023-03-29T12:47:11.297Z,56.88
2023-03-29T12:48:11.224Z,56.56
2023-03-29T12:49:11.197Z,56.72
2023-03-29T12:50:11.183Z,58.97
2023-03-29T12:51:11.195Z,54.79
2023-03-29T12:52:11.184Z,58.01